SAS420 ESNU-ESNS
Flight info
| Callsign | SAS420 |
|---|---|
| Flight time | 0h 15m |
| Altitude | 11000 |
| Route | ESNU/14 SOPLI2K SOPLI DCT MOKMO DCT LUVIX DCT ESNS/28 |
| Aircraft | A320/M-SDE2E3FGHIJ1RWXY/L |
Departure
| Time | 2026-05-04 16:00 |
|---|---|
| Airport | Umeå Airport (ESNU) |
Arrival
| Time | 2026-05-04 16:15 |
|---|---|
| Airport | Skellefteå Airport (ESNS) |
| Time | Latitude | Longitude | Altitude | Speed | Heading |
|---|---|---|---|---|---|
| 2026-05-04 15:37 | 63.79342 | 20.28741 | 30 ft | 0 kts | 49° |
| 2026-05-04 15:52 | 63.79341 | 20.28739 | 30 ft | 2 kts | 50° |
| 2026-05-04 15:52 | 63.79328 | 20.28676 | 30 ft | 5 kts | 88° |
| 2026-05-04 15:53 | 63.79336 | 20.28605 | 30 ft | 5 kts | 127° |
| 2026-05-04 15:53 | 63.79340 | 20.28592 | 30 ft | 0 kts | 136° |
| 2026-05-04 15:56 | 63.79332 | 20.28609 | 30 ft | 6 kts | 139° |
| 2026-05-04 15:56 | 63.79272 | 20.28667 | 30 ft | 11 kts | 190° |
| 2026-05-04 15:56 | 63.79208 | 20.28533 | 30 ft | 14 kts | 227° |
| 2026-05-04 15:56 | 63.79171 | 20.28322 | 29 ft | 14 kts | 295° |
| 2026-05-04 15:57 | 63.79250 | 20.28153 | 29 ft | 19 kts | 317° |
| 2026-05-04 15:57 | 63.79375 | 20.27904 | 31 ft | 28 kts | 319° |
| 2026-05-04 15:57 | 63.79535 | 20.27579 | 30 ft | 34 kts | 318° |
| 2026-05-04 15:57 | 63.79713 | 20.27235 | 32 ft | 29 kts | 327° |
| 2026-05-04 15:58 | 63.79766 | 20.27128 | 33 ft | 1 kts | 236° |
| 2026-05-04 15:58 | 63.79759 | 20.27137 | 33 ft | 2 kts | 155° |
| 2026-05-04 15:58 | 63.79734 | 20.27178 | 33 ft | 0 kts | 141° |
| 2026-05-04 15:58 | 63.79719 | 20.27204 | 32 ft | 0 kts | 142° |
| 2026-05-04 15:59 | 63.79645 | 20.27352 | 31 ft | 52 kts | 138° |
| 2026-05-04 15:59 | 63.79141 | 20.28361 | 30 ft | 136 kts | 139° |
| 2026-05-04 16:00 | 63.78350 | 20.30019 | 498 ft | 166 kts | 137° |
| 2026-05-04 16:00 | 63.77474 | 20.32075 | 1212 ft | 196 kts | 133° |
| 2026-05-04 16:00 | 63.77002 | 20.34918 | 2288 ft | 204 kts | 83° |
| 2026-05-04 16:00 | 63.77383 | 20.38263 | 2819 ft | 246 kts | 68° |
| 2026-05-04 16:01 | 63.77900 | 20.42257 | 3353 ft | 281 kts | 80° |
| 2026-05-04 16:01 | 63.78433 | 20.46424 | 4794 ft | 271 kts | 58° |
| 2026-05-04 16:01 | 63.79661 | 20.49601 | 6064 ft | 271 kts | 32° |
| 2026-05-04 16:01 | 63.81391 | 20.51250 | 7091 ft | 273 kts | 8° |
| 2026-05-04 16:02 | 63.83321 | 20.51836 | 7972 ft | 290 kts | 2° |
| 2026-05-04 16:02 | 63.85438 | 20.52356 | 8377 ft | 323 kts | 5° |
| 2026-05-04 16:02 | 63.90301 | 20.54475 | 9265 ft | 374 kts | 12° |
| 2026-05-04 16:03 | 63.92827 | 20.55900 | 10003 ft | 365 kts | 12° |
| 2026-05-04 16:03 | 63.95206 | 20.57308 | 10335 ft | 345 kts | 12° |
| 2026-05-04 16:03 | 63.97530 | 20.58695 | 10499 ft | 348 kts | 12° |
| 2026-05-04 16:03 | 63.99874 | 20.60085 | 10549 ft | 347 kts | 12° |
| 2026-05-04 16:04 | 64.02213 | 20.61466 | 10543 ft | 347 kts | 12° |
| 2026-05-04 16:04 | 64.06890 | 20.64223 | 10538 ft | 347 kts | 12° |
| 2026-05-04 16:04 | 64.09198 | 20.65586 | 10530 ft | 346 kts | 12° |
| 2026-05-04 16:05 | 64.11532 | 20.66966 | 10536 ft | 346 kts | 12° |
| 2026-05-04 16:05 | 64.13866 | 20.68348 | 10540 ft | 346 kts | 12° |
| 2026-05-04 16:05 | 64.18404 | 20.71914 | 10533 ft | 350 kts | 33° |
| 2026-05-04 16:06 | 64.20254 | 20.75555 | 10523 ft | 351 kts | 42° |
| 2026-05-04 16:06 | 64.24934 | 20.85920 | 10523 ft | 350 kts | 43° |
| 2026-05-04 16:07 | 64.27286 | 20.91129 | 10519 ft | 351 kts | 43° |
| 2026-05-04 16:07 | 64.32539 | 21.02724 | 9718 ft | 338 kts | 43° |
| 2026-05-04 16:08 | 64.34203 | 21.06407 | 9584 ft | 325 kts | 43° |
| 2026-05-04 16:08 | 64.38843 | 21.16705 | 8809 ft | 300 kts | 43° |
| 2026-05-04 16:09 | 64.41827 | 21.23351 | 7975 ft | 296 kts | 43° |
| 2026-05-04 16:09 | 64.44771 | 21.29929 | 7174 ft | 292 kts | 43° |
| 2026-05-04 16:10 | 64.47659 | 21.36406 | 6384 ft | 289 kts | 43° |
| 2026-05-04 16:11 | 64.52131 | 21.45549 | 5183 ft | 280 kts | 20° |
| 2026-05-04 16:11 | 64.53981 | 21.46320 | 4794 ft | 272 kts | 353° |
| 2026-05-04 16:12 | 64.58372 | 21.40270 | 3963 ft | 253 kts | 284° |
| 2026-05-04 16:12 | 64.59680 | 21.29438 | 3509 ft | 179 kts | 286° |
| 2026-05-04 16:13 | 64.60397 | 21.24011 | 2408 ft | 171 kts | 286° |
| 2026-05-04 16:13 | 64.61107 | 21.18772 | 929 ft | 163 kts | 284° |
| 2026-05-04 16:14 | 64.61762 | 21.13469 | 419 ft | 174 kts | 284° |
| 2026-05-04 16:14 | 64.62398 | 21.08291 | 145 ft | 141 kts | 284° |
| 2026-05-04 16:15 | 64.62520 | 21.06841 | 155 ft | 15 kts | 199° |
| 2026-05-04 16:16 | 64.62458 | 21.06795 | 155 ft | 0 kts | 195° |
| 2026-05-04 16:16 | 64.62396 | 21.06846 | 154 ft | 7 kts | 159° |
| 2026-05-04 16:17 | 64.62378 | 21.06810 | 155 ft | 3 kts | 256° |
| 2026-05-04 16:18 | 64.62376 | 21.06791 | 155 ft | 0 kts | 258° |